Погода Пастриховона неделю

Смоленская область, Россия

24 - 30 мая
  • 24мая
    Сегодня
    +7°
    +21°
    Ясно и безоблачно
    ВремяПогодаТемператураВлажностьДавлениеВетер, м/сВероятность осадков
    00:00Ясно и безоблачно+12°C52 %752 мм3.3 м/с2 %
    03:00Ясно и безоблачно+10°C63 %752 мм2.9 м/с2 %
    06:00Ясно и безоблачно+10°C64 %754 мм3.1 м/с2 %
    09:00Практически безоблачно+15°C44 %754 мм3.6 м/с2 %
    12:00Ясно и безоблачно+19°C28 %754 мм4.7 м/с2 %
    15:00Ясно и безоблачно+21°C24 %753 мм4.3 м/с2 %
    18:00Ясно и безоблачно+20°C28 %753 мм3.6 м/с2 %
    21:00Ясно и безоблачно+14°C49 %753 мм2.6 м/с2 %
  • 25мая
    Суббота
    +10°
    +23°
    Ясно и безоблачно
    ВремяПогодаТемператураВлажностьДавлениеВетер, м/сВероятность осадков
    00:00Ясно и безоблачно+10°C57 %753 мм2.7 м/с2 %
    03:00Ясно и безоблачно+8°C68 %753 мм2.5 м/с2 %
    06:00Ясно и безоблачно+9°C70 %753 мм2.5 м/с2 %
    09:00Ясно и безоблачно+16°C55 %753 мм1.9 м/с2 %
    12:00Ясно и безоблачно+21°C41 %752 мм2.0 м/с2 %
    15:00Ясно и безоблачно+23°C35 %751 мм2.4 м/с2 %
    18:00Ясно и безоблачно+23°C37 %750 мм1.9 м/с2 %
    21:00Ясно и безоблачно+17°C66 %749 мм1.9 м/с2 %
  • 26мая
    Воскресенье
    +12°
    +26°
    Небольшая облачность
    ВремяПогодаТемператураВлажностьДавлениеВетер, м/сВероятность осадков
    00:00Ясно и безоблачно+12°C74 %749 мм2.3 м/с2 %
    03:00Ясно и безоблачно+11°C80 %749 мм2.3 м/с2 %
    06:00Ясно и безоблачно+12°C78 %749 мм2.3 м/с2 %
    09:00Ясно и безоблачно+19°C59 %749 мм1.4 м/с2 %
    12:00Ясно и безоблачно+23°C38 %749 мм2.5 м/с2 %
    15:00Небольшая облачность+25°C34 %749 мм2.3 м/с5 %
    18:00Практически безоблачно+25°C36 %748 мм2.6 м/с12 %
    21:00Ясно и безоблачно+19°C62 %749 мм2.9 м/с3 %
  • 27мая
    Понедельник
    +10°
    +23°
    Практически безоблачно
    ВремяПогодаТемператураВлажностьДавлениеВетер, м/сВероятность осадков
    00:00Ясно и безоблачно+14°C82 %749 мм2.6 м/с3 %
    03:00Практически безоблачно+13°C93 %750 мм2.7 м/с2 %
    06:00Ясно и безоблачно+14°C91 %750 мм2.7 м/с2 %
    09:00Практически безоблачно+19°C72 %751 мм3.7 м/с2 %
    12:00Ясно и безоблачно+22°C52 %751 мм4.1 м/с9 %
    15:00Практически безоблачно+23°C42 %751 мм3.6 м/с11 %
    18:00Ясно и безоблачно+22°C39 %750 мм3.5 м/с20 %
    21:00Ясно и безоблачно+18°C53 %750 мм2.7 м/с2 %
  • 28мая
    Вторник
    +11°
    +24°
    Ясно и безоблачно
    ВремяПогодаТемператураВлажностьДавлениеВетер, м/сВероятность осадков
    00:00Ясно и безоблачно+14°C60 %750 мм2.9 м/с2 %
    03:00Ясно и безоблачно+12°C63 %751 мм2.3 м/с2 %
    06:00Ясно и безоблачно+12°C69 %751 мм2.4 м/с2 %
    09:00Ясно и безоблачно+19°C51 %751 мм2.3 м/с2 %
    12:00Ясно и безоблачно+22°C36 %751 мм3.1 м/с4 %
    15:00Ясно и безоблачно+24°C30 %750 мм2.5 м/с5 %
    18:00Ясно и безоблачно+23°C33 %749 мм2.1 м/с7 %
    21:00Ясно и безоблачно+18°C59 %749 мм1.9 м/с5 %
Мы используем cookies
Соглашаюсь